createdAt,value
2022-08-17T00:02:27.305Z,5.20
2022-08-17T00:07:27.158Z,5.10
2022-08-17T00:12:41.715Z,5.10
2022-08-17T00:17:27.146Z,5.30
2022-08-17T00:22:35.150Z,5.30
2022-08-17T00:27:27.231Z,4.50
2022-08-17T00:33:15.640Z,4.50
2022-08-17T00:37:27.165Z,5.00
2022-08-17T00:42:30.999Z,5.00
2022-08-17T00:47:27.167Z,4.70
2022-08-17T00:52:27.199Z,4.70
2022-08-17T00:57:27.183Z,4.40
2022-08-17T01:02:27.215Z,4.40
2022-08-17T01:07:27.199Z,4.90
2022-08-17T01:12:27.230Z,4.90
2022-08-17T01:17:27.177Z,4.90
2022-08-17T01:22:27.209Z,4.90
2022-08-17T01:27:27.366Z,5.20
2022-08-17T01:32:27.255Z,5.20
2022-08-17T01:37:27.172Z,5.60
2022-08-17T01:42:27.258Z,5.60
2022-08-17T01:47:27.193Z,4.60
2022-08-17T01:52:27.215Z,4.60
2022-08-17T01:57:27.247Z,5.10
2022-08-17T02:02:31.395Z,5.10
2022-08-17T02:07:27.203Z,4.70
2022-08-17T02:12:39.479Z,4.70
2022-08-17T02:17:27.200Z,5.40
2022-08-17T02:22:27.250Z,5.40
2022-08-17T02:27:27.280Z,5.20
2022-08-17T02:32:28.648Z,5.20
2022-08-17T02:37:27.212Z,4.10
2022-08-17T02:42:27.275Z,4.10
2022-08-17T02:47:27.233Z,5.20
2022-08-17T02:52:41.926Z,5.20
2022-08-17T02:57:27.260Z,4.40
2022-08-17T03:02:27.266Z,4.40
2022-08-17T03:07:27.244Z,4.90
2022-08-17T03:12:27.271Z,4.90
2022-08-17T03:17:27.227Z,4.50
2022-08-17T03:22:36.600Z,4.50
2022-08-17T03:27:27.304Z,4.90
2022-08-17T03:32:27.332Z,4.90
2022-08-17T03:37:27.236Z,4.50
2022-08-17T03:42:32.085Z,4.50
2022-08-17T03:47:27.233Z,6.20
2022-08-17T03:52:27.314Z,6.20
2022-08-17T03:57:27.313Z,6.10
2022-08-17T04:02:27.292Z,6.10
2022-08-17T04:07:27.249Z,5.30
2022-08-17T04:12:27.284Z,5.30
2022-08-17T04:17:27.259Z,4.70
2022-08-17T04:22:32.708Z,4.70
2022-08-17T04:27:27.323Z,5.10
2022-08-17T04:33:03.640Z,5.10
2022-08-17T04:37:27.285Z,6.60
2022-08-17T04:42:27.327Z,6.60
2022-08-17T04:47:27.287Z,7.10
2022-08-17T04:52:32.331Z,7.10
2022-08-17T04:57:27.314Z,6.40
2022-08-17T05:02:27.336Z,6.40
2022-08-17T05:07:30.941Z,6.20
2022-08-17T05:12:27.344Z,6.20
2022-08-17T05:17:27.303Z,5.20
2022-08-17T05:22:27.353Z,5.20
2022-08-17T05:27:29.816Z,5.70
2022-08-17T05:32:39.145Z,5.70
2022-08-17T05:37:27.307Z,5.70
2022-08-17T05:42:27.349Z,5.70
2022-08-17T05:47:27.586Z,5.80
2022-08-17T05:52:27.351Z,5.80
2022-08-17T05:57:27.333Z,5.60
2022-08-17T06:02:27.347Z,5.60
2022-08-17T06:07:27.387Z,5.50
2022-08-17T06:12:27.368Z,5.50
2022-08-17T06:17:27.314Z,4.90
2022-08-17T06:22:27.376Z,4.90
2022-08-17T06:27:27.427Z,5.40
2022-08-17T06:32:27.396Z,5.40
2022-08-17T06:37:27.359Z,5.20
2022-08-17T06:42:54.017Z,5.20
2022-08-17T06:47:27.353Z,5.60
2022-08-17T06:52:37.606Z,5.60
2022-08-17T07:02:29.523Z,5.40
2022-08-17T07:07:27.363Z,5.20
2022-08-17T07:12:27.402Z,5.20
2022-08-17T07:17:46.780Z,5.60
2022-08-17T07:22:27.404Z,5.60
2022-08-17T07:27:27.354Z,5.80
2022-08-17T07:32:27.419Z,5.80
2022-08-17T07:37:27.373Z,5.00
2022-08-17T07:42:27.408Z,5.00
2022-08-17T07:47:27.434Z,4.60
2022-08-17T07:52:51.126Z,4.60
2022-08-17T07:57:30.006Z,4.80
2022-08-17T08:02:29.516Z,4.80
2022-08-17T08:07:27.378Z,4.90
2022-08-17T08:12:32.700Z,4.90
2022-08-17T08:17:27.423Z,4.70
2022-08-17T08:22:27.455Z,4.70
2022-08-17T08:27:27.409Z,5.10
2022-08-17T08:32:27.460Z,5.10
2022-08-17T08:37:33.879Z,4.20
2022-08-17T08:42:27.547Z,4.20
2022-08-17T08:47:27.449Z,4.90
2022-08-17T08:52:27.462Z,4.90
2022-08-17T08:57:32.914Z,5.10
2022-08-17T09:02:27.468Z,5.10
2022-08-17T09:07:27.422Z,5.10
2022-08-17T09:12:27.580Z,5.10
2022-08-17T09:17:27.462Z,5.60
2022-08-17T09:22:27.460Z,5.60
2022-08-17T09:27:27.430Z,5.80
2022-08-17T09:32:27.483Z,5.80
2022-08-17T09:37:27.439Z,5.30
2022-08-17T09:42:27.505Z,5.30
2022-08-17T09:47:27.503Z,5.20
2022-08-17T09:52:27.472Z,5.20
2022-08-17T09:57:30.679Z,5.60
2022-08-17T10:02:27.489Z,5.60
2022-08-17T10:07:27.451Z,5.20
2022-08-17T10:12:30.135Z,5.20
2022-08-17T10:17:27.536Z,5.20
2022-08-17T10:22:34.799Z,5.20
2022-08-17T10:27:27.507Z,5.30
2022-08-17T10:32:27.555Z,5.30
2022-08-17T10:37:27.476Z,4.60
2022-08-17T10:42:31.416Z,4.60
2022-08-17T10:47:27.547Z,5.70
2022-08-17T10:52:27.543Z,5.70
2022-08-17T10:57:27.479Z,5.50
2022-08-17T11:02:27.549Z,5.50
2022-08-17T11:07:27.487Z,4.70
2022-08-17T11:12:27.538Z,4.70
2022-08-17T11:17:27.539Z,5.10
2022-08-17T11:22:32.792Z,5.10
2022-08-17T11:27:27.500Z,5.20
2022-08-17T11:32:27.526Z,5.20
2022-08-17T11:37:27.515Z,4.80
2022-08-17T11:42:27.566Z,4.80
2022-08-17T11:47:27.576Z,5.20
2022-08-17T11:52:27.557Z,5.20
2022-08-17T11:57:27.521Z,4.90
2022-08-17T12:02:27.557Z,4.90
2022-08-17T12:07:27.529Z,4.40
2022-08-17T12:12:27.591Z,4.40
2022-08-17T12:17:41.244Z,3.90
2022-08-17T12:22:27.579Z,3.90
2022-08-17T12:27:47.700Z,3.90
2022-08-17T12:32:27.610Z,3.90
2022-08-17T12:37:27.540Z,3.50
2022-08-17T12:42:27.624Z,3.50
2022-08-17T12:47:29.448Z,3.70
2022-08-17T12:52:27.593Z,3.70
2022-08-17T12:57:27.554Z,3.70
2022-08-17T13:02:27.663Z,3.60
2022-08-17T13:07:27.608Z,3.60
2022-08-17T13:12:27.610Z,3.50
2022-08-17T13:17:27.588Z,3.50
2022-08-17T13:22:27.610Z,3.60
2022-08-17T13:27:27.592Z,3.60
2022-08-17T13:32:27.628Z,3.50
2022-08-17T13:37:27.594Z,3.50
2022-08-17T13:42:27.666Z,3.40
2022-08-17T13:47:27.621Z,3.40
2022-08-17T13:52:27.637Z,3.60
2022-08-17T13:57:27.592Z,3.60
2022-08-17T14:02:28.565Z,4.40
2022-08-17T14:07:27.603Z,4.40
2022-08-17T14:12:27.648Z,3.70
2022-08-17T14:17:27.643Z,3.70
2022-08-17T14:22:27.632Z,3.60
2022-08-17T14:27:27.610Z,3.60
2022-08-17T14:32:27.645Z,3.70
2022-08-17T14:37:27.628Z,3.70
2022-08-17T14:42:27.688Z,2.60
2022-08-17T14:47:27.663Z,2.60
2022-08-17T14:52:27.692Z,2.70
2022-08-17T14:57:34.319Z,2.70
2022-08-17T15:02:29.490Z,2.50
2022-08-17T15:07:30.810Z,2.50
2022-08-17T15:12:32.330Z,3.20
2022-08-17T15:17:43.664Z,3.20
2022-08-17T15:22:27.701Z,3.00
2022-08-17T15:27:32.784Z,3.00
2022-08-17T15:32:27.686Z,4.20
2022-08-17T15:37:27.654Z,4.20
2022-08-17T15:42:27.695Z,3.80
2022-08-17T15:47:27.682Z,3.80
2022-08-17T15:52:27.681Z,3.50
2022-08-17T15:57:27.666Z,3.50
2022-08-17T16:03:45.508Z,3.20
2022-08-17T16:07:27.675Z,3.20
2022-08-17T16:12:27.714Z,3.00
2022-08-17T16:17:39.223Z,3.00
2022-08-17T16:22:27.729Z,3.40
2022-08-17T16:27:27.676Z,3.40
2022-08-17T16:32:31.645Z,3.20
2022-08-17T16:37:27.685Z,3.20
2022-08-17T16:42:27.739Z,3.20
2022-08-17T16:47:27.724Z,3.20
2022-08-17T16:52:32.577Z,3.40
2022-08-17T16:57:27.698Z,3.40
2022-08-17T17:02:27.747Z,3.00
2022-08-17T17:07:27.703Z,3.00
2022-08-17T17:13:02.041Z,2.50
2022-08-17T17:17:27.753Z,2.50
2022-08-17T17:22:27.769Z,2.80
2022-08-17T17:27:27.701Z,2.80
2022-08-17T17:32:27.799Z,2.40
2022-08-17T17:37:27.976Z,2.40
2022-08-17T17:42:27.751Z,2.50
2022-08-17T17:47:27.746Z,2.50
2022-08-17T17:52:27.760Z,2.60
2022-08-17T17:57:27.744Z,2.60
2022-08-17T18:02:27.785Z,2.40
2022-08-17T18:07:27.778Z,2.40
2022-08-17T18:12:27.769Z,2.20
2022-08-17T18:17:28.207Z,2.20
2022-08-17T18:27:27.818Z,2.40
2022-08-17T18:32:27.863Z,2.40
2022-08-17T18:37:27.782Z,2.40
2022-08-17T18:42:27.794Z,2.80
2022-08-17T18:47:27.805Z,2.80
2022-08-17T18:52:27.760Z,2.70
2022-08-17T18:57:27.793Z,2.70
2022-08-17T19:02:45.220Z,2.90
2022-08-17T19:07:27.795Z,2.90
2022-08-17T19:12:27.776Z,2.70
2022-08-17T19:17:27.797Z,2.70
2022-08-17T19:22:29.010Z,3.20
2022-08-17T19:27:32.119Z,3.20
2022-08-17T19:32:27.850Z,3.50
2022-08-17T19:37:27.876Z,3.50
2022-08-17T19:42:27.784Z,3.30
2022-08-17T19:47:51.499Z,3.30
2022-08-17T19:52:27.900Z,3.50
2022-08-17T19:57:27.865Z,3.50
2022-08-17T20:02:27.867Z,3.50
2022-08-17T20:07:27.867Z,3.50
2022-08-17T20:12:27.872Z,4.10
2022-08-17T20:17:28.185Z,4.10
2022-08-17T20:22:27.832Z,4.40
2022-08-17T20:27:29.496Z,4.40
2022-08-17T20:32:27.872Z,4.20
2022-08-17T20:37:27.850Z,4.20
2022-08-17T20:42:27.832Z,3.90
2022-08-17T20:47:27.870Z,3.90
2022-08-17T20:52:27.845Z,4.00
2022-08-17T20:57:27.885Z,4.00
2022-08-17T21:02:27.864Z,4.20
2022-08-17T21:07:27.897Z,4.20
2022-08-17T21:12:27.840Z,4.50
2022-08-17T21:17:27.897Z,4.50
2022-08-17T21:22:27.862Z,4.80
2022-08-17T21:27:27.889Z,4.80
2022-08-17T21:32:27.886Z,4.60
2022-08-17T21:37:27.923Z,4.60
2022-08-17T21:42:27.856Z,4.70
2022-08-17T21:47:27.926Z,4.70
2022-08-17T21:52:27.859Z,4.70
2022-08-17T21:57:27.918Z,4.70
2022-08-17T22:02:27.886Z,4.10
2022-08-17T22:07:27.907Z,4.10
2022-08-17T22:12:27.855Z,4.40
2022-08-17T22:17:27.936Z,4.40
2022-08-17T22:22:27.892Z,3.90
2022-08-17T22:27:27.950Z,3.90
2022-08-17T22:32:27.918Z,4.20
2022-08-17T22:37:28.027Z,4.20
2022-08-17T22:42:27.890Z,5.40
2022-08-17T22:47:27.938Z,5.40
2022-08-17T22:52:32.068Z,5.40
2022-08-17T22:57:27.932Z,5.40
2022-08-17T23:02:28.032Z,4.70
2022-08-17T23:07:28.025Z,4.70
2022-08-17T23:12:27.903Z,4.20
2022-08-17T23:17:27.977Z,4.20
2022-08-17T23:22:27.911Z,4.50
2022-08-17T23:27:27.959Z,4.50
2022-08-17T23:32:27.982Z,5.10
2022-08-17T23:37:27.962Z,5.10
2022-08-17T23:42:27.921Z,5.10
2022-08-17T23:47:27.958Z,5.10
2022-08-17T23:52:27.914Z,5.00
2022-08-17T23:57:35.889Z,5.00
